KRAP/RAP METAR and TAF weather

Enter ICAO airport designator
Station Type Date Time Source
KRAP METAR 2018/12/17 02:52 UTC NOAA

KRAP 170252Z 10003KT 10SM CLR M01/M05 A3011 RMK AO2 SLP228 T10061050 58012


Station Type Date Time Source
KRAP Decoded METAR 2018/12/17 02:52 UTC NOAA

RAPID CITY REGIONAL AIRPORT , SD, United States (KRAP) 44-03N 103-03W 965M
Dec 16, 2018 - 09:52 PM EST / 2018.12.17 0252 UTC
Wind: from the E (100 degrees) at 3 MPH (3 KT):0
Visibility: 10 mile(s):0
Sky conditions: clear
Temperature: 30.9 F (-0.6 C)
Dew Point: 23.0 F (-5.0 C)
Relative Humidity: 72%
Pressure (altimeter): 30.11 in. Hg (1019 hPa)
Pressure tendency: 0.04 inches (1.2 hPa) lower than three hours ago
ob: KRAP 170252Z 10003KT 10SM CLR M01/M05 A3011 RMK AO2 SLP228 T10061050 58012
cycle: 3

Station Type Date Time Source
KRAP TAF 2018/12/16 18:22 UTC NOAA

TAF KRAP 161720Z 1618/1718 VRB05KT P6SM SCT200


Example: see airport list